Time;durP1;ratioP1;P1;durP2;ratioP2;P2;SDS_P1;SDS_P2;PMS_P1;PMS_P2;Temp;Humidity;BMP_temperature;BMP_pressure;BME280_temperature;BME280_humidity;BME280_pressure;Samples;Min_cycle;Max_cycle;Signal;HPM_P1;HPM_P2
2022/05/26 00:01:12;;;;;;;1.60;1.50;;;18.70;57.40;;;;;;5042772;28;20187;-84
2022/05/26 00:03:40;;;;;;;1.88;1.70;;;18.70;57.30;;;;;;5061682;28;20203;-83
2022/05/26 00:06:08;;;;;;;3.05;1.80;;;18.60;57.40;;;;;;5065535;28;20191;-84
2022/05/26 00:08:36;;;;;;;1.50;1.40;;;18.60;57.70;;;;;;5060204;28;20224;-84
2022/05/26 00:11:07;;;;;;;2.05;1.85;;;18.60;57.30;;;;;;5055479;28;20196;-83
2022/05/26 00:13:33;;;;;;;3.75;1.65;;;18.70;57.50;;;;;;5056341;28;20216;-82
2022/05/26 00:15:59;;;;;;;1.60;1.50;;;18.60;57.10;;;;;;5059148;28;20235;-83
2022/05/26 00:18:25;;;;;;;1.83;1.70;;;18.60;57.80;;;;;;5028460;28;20195;-83
2022/05/26 00:20:50;;;;;;;1.95;1.80;;;18.60;57.70;;;;;;5057169;28;20193;-83
2022/05/26 00:23:16;;;;;;;1.75;1.45;;;18.60;57.40;;;;;;5034285;28;20212;-83
2022/05/26 00:25:42;;;;;;;2.25;1.58;;;18.50;57.20;;;;;;5054575;28;20206;-84
2022/05/26 00:28:08;;;;;;;2.27;1.53;;;18.40;57.90;;;;;;5041404;28;20204;-84
2022/05/26 00:30:34;;;;;;;1.67;1.50;;;18.20;58.30;;;;;;5056912;28;20213;-83
2022/05/26 00:33:07;;;;;;;2.27;1.70;;;18.20;58.60;;;;;;5056665;28;20215;-84
2022/05/26 00:35:39;;;;;;;2.27;1.60;;;18.10;58.20;;;;;;5052049;28;20767;-82
2022/05/26 00:38:08;;;;;;;2.00;1.60;;;18.10;58.80;;;;;;5053249;28;20216;-83
2022/05/26 00:40:34;;;;;;;1.97;1.60;;;18.10;58.10;;;;;;5054889;28;20182;-81
2022/05/26 00:42:59;;;;;;;1.77;1.60;;;18.20;57.30;;;;;;5044651;28;20219;-82
2022/05/26 00:45:41;;;;;;;1.70;1.50;;;18.10;57.90;;;;;;5056112;28;20304;-83
2022/05/26 00:48:12;;;;;;;1.53;1.43;;;18.10;57.80;;;;;;5057099;28;20373;-82
2022/05/26 00:50:51;;;;;;;2.73;1.60;;;18.00;58.30;;;;;;5058932;28;20195;-82
2022/05/26 00:53:52;;;;;;;1.50;1.40;;;18.10;57.40;;;;;;5051901;28;20249;-83
2022/05/26 00:56:23;;;;;;;1.67;1.57;;;18.20;57.30;;;;;;5040320;28;20213;-82
2022/05/26 00:58:54;;;;;;;4.07;1.77;;;18.20;57.30;;;;;;5055481;28;20245;-83
2022/05/26 01:01:21;;;;;;;2.47;1.57;;;18.10;57.80;;;;;;5054650;28;20252;-83
2022/05/26 01:03:55;;;;;;;1.37;1.37;;;18.10;57.30;;;;;;5039333;28;20291;-83
2022/05/26 01:06:51;;;;;;;1.70;1.47;;;18.10;57.80;;;;;;5058702;28;20183;-83
2022/05/26 01:09:17;;;;;;;1.83;1.60;;;18.10;57.90;;;;;;5052771;28;20207;-83
2022/05/26 01:11:44;;;;;;;1.60;1.50;;;18.10;57.80;;;;;;5057839;28;20187;-83
2022/05/26 01:14:22;;;;;;;1.50;1.40;;;18.10;58.00;;;;;;5059399;28;20249;-83
2022/05/26 01:17:04;;;;;;;2.30;1.70;;;18.10;58.30;;;;;;5063320;28;20223;-83
2022/05/26 01:19:55;;;;;;;1.90;1.70;;;18.10;58.20;;;;;;5060194;28;20197;-83
2022/05/26 01:22:45;;;;;;;3.17;1.57;;;18.10;58.00;;;;;;5062045;28;20189;-83
2022/05/26 01:25:37;;;;;;;2.37;1.50;;;18.10;57.50;;;;;;5060018;28;20192;-84
2022/05/26 01:28:27;;;;;;;4.27;1.60;;;18.10;58.00;;;;;;5062348;28;20189;-82
2022/05/26 01:31:28;;;;;;;2.57;1.87;;;18.00;57.20;;;;;;5057719;28;20194;-84
2022/05/26 01:34:24;;;;;;;1.90;1.70;;;18.10;57.20;;;;;;5051893;28;20231;-83
2022/05/26 01:37:18;;;;;;;3.40;1.50;;;18.10;57.40;;;;;;5031579;28;20238;-83
2022/05/26 01:39:59;;;;;;;1.50;1.40;;;18.10;57.90;;;;;;5048674;28;20196;-83
2022/05/26 01:42:34;;;;;;;3.03;1.50;;;18.00;57.90;;;;;;5057261;28;20270;-83
2022/05/26 01:45:32;;;;;;;3.10;1.60;;;18.00;58.30;;;;;;5051249;28;20204;-83
2022/05/26 01:48:16;;;;;;;1.77;1.60;;;18.00;58.10;;;;;;4997003;28;20194;-83
2022/05/26 01:50:42;;;;;;;2.27;1.50;;;17.90;58.40;;;;;;5048301;28;20184;-84
2022/05/26 01:53:45;;;;;;;1.60;1.50;;;17.90;58.80;;;;;;5048656;28;20699;-82
2022/05/26 01:56:29;;;;;;;3.03;1.60;;;17.90;59.00;;;;;;5049578;28;20213;-82
2022/05/26 01:59:04;;;;;;;1.67;1.57;;;17.90;58.80;;;;;;5049100;28;20187;-82
2022/05/26 02:01:35;;;;;;;2.90;1.67;;;17.80;59.30;;;;;;5049222;28;20185;-82
2022/05/26 02:04:06;;;;;;;2.47;1.63;;;17.80;59.60;;;;;;5036373;28;20676;-83
2022/05/26 02:06:39;;;;;;;1.70;1.60;;;17.80;59.60;;;;;;5049971;28;20173;-83
2022/05/26 02:09:13;;;;;;;1.90;1.80;;;17.80;59.50;;;;;;5049967;28;20184;-83
2022/05/26 02:12:00;;;;;;;2.20;1.57;;;17.90;59.80;;;;;;5030406;28;20191;-83
2022/05/26 02:14:51;;;;;;;2.13;1.70;;;17.80;60.20;;;;;;5045554;28;20564;-83
2022/05/26 02:17:31;;;;;;;1.50;1.40;;;17.70;60.60;;;;;;5045308;28;20657;-82
2022/05/26 02:20:02;;;;;;;2.20;1.70;;;17.80;60.60;;;;;;5049695;28;20178;-82
2022/05/26 02:22:34;;;;;;;1.70;1.60;;;17.70;61.30;;;;;;5054212;28;20608;-83
2022/05/26 02:25:02;;;;;;;3.47;1.60;;;17.80;61.00;;;;;;5052476;28;20205;-82
2022/05/26 02:27:28;;;;;;;2.23;1.50;;;17.80;60.60;;;;;;5052372;28;20241;-82
2022/05/26 02:29:56;;;;;;;3.13;1.60;;;17.70;60.70;;;;;;5032136;28;20651;-82
2022/05/26 02:32:28;;;;;;;6.43;1.70;;;17.80;60.60;;;;;;5046805;28;20622;-84
2022/05/26 02:34:57;;;;;;;2.07;1.60;;;17.80;60.70;;;;;;5049180;28;20337;-83
2022/05/26 02:37:26;;;;;;;1.60;1.50;;;17.80;61.10;;;;;;5063452;28;20199;-83
2022/05/26 02:39:54;;;;;;;3.75;1.60;;;17.80;60.90;;;;;;5062904;28;20186;-83
2022/05/26 02:42:21;;;;;;;1.60;1.50;;;17.80;60.90;;;;;;5059919;28;20181;-84
2022/05/26 02:44:47;;;;;;;1.48;1.38;;;17.80;60.70;;;;;;5042881;28;20195;-83
2022/05/26 02:47:25;;;;;;;1.83;1.63;;;17.80;61.20;;;;;;5027604;28;20195;-83
2022/05/26 02:50:02;;;;;;;1.63;1.52;;;17.80;60.50;;;;;;5042983;28;20277;-83
2022/05/26 02:52:49;;;;;;;1.67;1.50;;;17.80;60.90;;;;;;5047951;28;20626;-83
2022/05/26 02:55:24;;;;;;;1.40;1.30;;;17.70;60.70;;;;;;5028829;28;20270;-82
2022/05/26 02:58:05;;;;;;;2.60;1.70;;;17.70;61.20;;;;;;5047620;28;20196;-82
2022/05/26 03:00:46;;;;;;;1.70;1.60;;;17.40;62.20;;;;;;5028735;28;20195;-82
2022/05/26 03:03:22;;;;;;;3.53;1.80;;;17.30;62.00;;;;;;5033634;28;20214;-83
2022/05/26 03:06:01;;;;;;;2.00;1.50;;;17.20;62.50;;;;;;5046667;28;20211;-83
2022/05/26 03:08:28;;;;;;;1.60;1.50;;;17.10;63.20;;;;;;5045298;28;20184;-82
2022/05/26 03:11:05;;;;;;;1.87;1.40;;;17.20;62.90;;;;;;5050464;28;20691;-84
2022/05/26 03:13:30;;;;;;;1.70;1.50;;;17.00;62.90;;;;;;5047358;28;20212;-82
2022/05/26 03:15:56;;;;;;;1.60;1.50;;;16.90;64.00;;;;;;5051811;28;20252;-82
2022/05/26 03:18:22;;;;;;;1.40;1.40;;;16.80;64.40;;;;;;5026975;28;20235;-81
2022/05/26 03:20:47;;;;;;;2.07;1.50;;;16.70;64.60;;;;;;5047409;28;20241;-82
2022/05/26 03:23:13;;;;;;;2.47;1.90;;;16.70;64.60;;;;;;5050290;28;20216;-83
2022/05/26 03:25:45;;;;;;;3.60;1.60;;;16.80;63.60;;;;;;5048493;28;20213;-82
2022/05/26 03:28:14;;;;;;;3.43;1.80;;;16.70;64.20;;;;;;5036155;28;20205;-81
2022/05/26 03:30:39;;;;;;;1.53;1.43;;;16.80;64.00;;;;;;5047657;28;20219;-82
2022/05/26 03:33:05;;;;;;;1.60;1.50;;;16.80;63.50;;;;;;5044134;28;20224;-83
2022/05/26 03:41:03;;;;;;;2.10;1.50;;;16.80;62.70;;;;;;5033530;28;20204;-83
2022/05/26 03:43:37;;;;;;;3.53;1.53;;;16.80;63.00;;;;;;5048286;28;20229;-82
2022/05/26 03:46:03;;;;;;;1.77;1.50;;;16.70;63.00;;;;;;5044955;28;20215;-82
2022/05/26 03:48:29;;;;;;;4.83;1.53;;;16.70;63.00;;;;;;5048302;28;20188;-82
2022/05/26 03:50:55;;;;;;;1.47;1.37;;;16.70;62.90;;;;;;5047696;28;20220;-82
2022/05/26 03:53:20;;;;;;;1.50;1.40;;;16.70;63.10;;;;;;5054309;28;20230;-82
2022/05/26 03:55:46;;;;;;;2.17;1.60;;;16.70;63.00;;;;;;5046214;28;20611;-82
2022/05/26 03:58:12;;;;;;;1.53;1.40;;;16.70;62.80;;;;;;5046537;28;20213;-82
2022/05/26 04:00:38;;;;;;;1.50;1.40;;;16.80;62.40;;;;;;5048341;28;20213;-82
2022/05/26 04:03:04;;;;;;;2.60;1.60;;;16.80;62.70;;;;;;5046281;28;20223;-81
2022/05/26 04:05:30;;;;;;;1.70;1.60;;;16.80;62.60;;;;;;5042787;28;20709;-82
2022/05/26 04:07:56;;;;;;;1.60;1.50;;;16.90;62.20;;;;;;5034860;28;20189;-82
2022/05/26 04:10:22;;;;;;;2.37;1.60;;;16.90;62.30;;;;;;5035222;28;20192;-82
2022/05/26 04:12:48;;;;;;;2.43;1.50;;;17.10;62.10;;;;;;5047482;28;20563;-83
2022/05/26 04:15:16;;;;;;;1.53;1.43;;;17.20;62.00;;;;;;5047513;28;20690;-83
2022/05/26 04:17:41;;;;;;;3.83;1.70;;;17.20;62.30;;;;;;5046417;28;20275;-82
2022/05/26 04:20:10;;;;;;;1.73;1.50;;;17.30;61.80;;;;;;5052399;28;20652;-82
2022/05/26 04:22:36;;;;;;;1.77;1.50;;;17.40;62.30;;;;;;5045757;28;20216;-82
2022/05/26 04:25:03;;;;;;;3.30;1.60;;;17.40;61.90;;;;;;5048754;28;20197;-82
2022/05/26 04:27:31;;;;;;;2.97;1.57;;;17.40;61.90;;;;;;5043488;28;20204;-82
2022/05/26 04:29:57;;;;;;;2.47;1.60;;;17.30;63.30;;;;;;5046039;28;20201;-83
2022/05/26 04:32:24;;;;;;;3.63;1.70;;;17.20;63.00;;;;;;5032499;28;20235;-82
2022/05/26 04:34:51;;;;;;;1.63;1.53;;;17.20;62.10;;;;;;5044665;28;20281;-83
2022/05/26 04:37:18;;;;;;;3.23;1.70;;;17.20;62.40;;;;;;5042269;28;20243;-83
2022/05/26 04:39:45;;;;;;;2.97;1.50;;;17.20;63.20;;;;;;5049037;28;20185;-82
2022/05/26 04:42:11;;;;;;;2.97;1.67;;;17.20;63.80;;;;;;5046315;28;20188;-83
2022/05/26 04:44:39;;;;;;;3.23;1.90;;;17.10;63.70;;;;;;5046049;28;20200;-84
2022/05/26 04:47:06;;;;;;;2.77;1.60;;;17.10;63.70;;;;;;5044973;28;20173;-82
2022/05/26 04:49:32;;;;;;;1.87;1.73;;;17.10;64.00;;;;;;5049707;28;20188;-82
2022/05/26 04:51:58;;;;;;;1.73;1.63;;;17.10;64.70;;;;;;5053844;28;20694;-82
2022/05/26 04:54:25;;;;;;;3.70;1.93;;;17.10;64.10;;;;;;5034756;28;20204;-83
2022/05/26 04:56:58;;;;;;;1.80;1.70;;;17.20;63.80;;;;;;5049482;28;20701;-84
2022/05/26 04:59:25;;;;;;;1.77;1.67;;;17.20;64.70;;;;;;5048324;28;20180;-84
2022/05/26 05:01:50;;;;;;;2.63;1.60;;;17.30;63.80;;;;;;5045466;28;20255;-84
2022/05/26 05:04:17;;;;;;;2.33;2.13;;;17.40;63.50;;;;;;5047776;28;20612;-84
2022/05/26 05:06:46;;;;;;;1.90;1.73;;;17.40;63.70;;;;;;5052380;28;20185;-83
2022/05/26 05:09:14;;;;;;;1.93;1.53;;;17.40;63.70;;;;;;5048708;28;20248;-82
2022/05/26 05:11:40;;;;;;;1.93;1.53;;;17.40;63.70;;;;;;5050409;28;20193;-83
2022/05/26 05:14:05;;;;;;;3.47;1.60;;;17.40;64.10;;;;;;5029068;28;20213;-83
2022/05/26 05:16:44;;;;;;;1.70;1.60;;;17.50;64.50;;;;;;5057265;28;20630;-84
2022/05/26 05:19:11;;;;;;;2.63;1.70;;;17.40;64.10;;;;;;5053606;28;20191;-83
2022/05/26 05:21:42;;;;;;;2.93;1.67;;;17.30;65.20;;;;;;5050754;28;20455;-83
2022/05/26 05:24:20;;;;;;;2.37;1.50;;;17.30;65.30;;;;;;5049369;28;20223;-82
2022/05/26 05:26:50;;;;;;;2.37;1.53;;;17.20;62.80;;;;;;5061132;28;20189;-83
2022/05/26 05:29:19;;;;;;;1.67;1.57;;;17.30;64.30;;;;;;5053227;28;20190;-83
2022/05/26 05:31:50;;;;;;;2.43;1.80;;;17.30;63.20;;;;;;5049262;28;20212;-82
2022/05/26 05:34:27;;;;;;;2.00;1.60;;;17.30;63.50;;;;;;5049903;28;20213;-83
2022/05/26 05:36:53;;;;;;;2.47;1.60;;;17.40;63.50;;;;;;5047191;28;20617;-83
2022/05/26 05:39:19;;;;;;;3.10;1.80;;;17.50;65.70;;;;;;5051315;28;20247;-82
2022/05/26 05:41:45;;;;;;;3.20;1.70;;;17.50;67.20;;;;;;5057704;28;20188;-83
2022/05/26 05:44:11;;;;;;;2.27;1.60;;;17.50;67.20;;;;;;5062277;28;20232;-82
2022/05/26 05:46:57;;;;;;;2.70;2.00;;;17.50;67.30;;;;;;5065926;28;20211;-82
2022/05/26 05:49:26;;;;;;;1.83;1.70;;;17.50;67.60;;;;;;5053305;28;20215;-83
2022/05/26 05:51:53;;;;;;;4.07;1.90;;;17.40;67.60;;;;;;5031567;28;20650;-84
2022/05/26 05:54:19;;;;;;;2.60;1.60;;;17.30;67.60;;;;;;5048761;28;20235;-83
2022/05/26 05:56:46;;;;;;;1.80;1.70;;;17.40;68.00;;;;;;5026223;28;20223;-83
2022/05/26 05:59:12;;;;;;;2.07;1.70;;;17.50;67.90;;;;;;5052516;28;20174;-82
2022/05/26 06:01:38;;;;;;;2.13;1.70;;;17.50;67.20;;;;;;5054077;28;20214;-83
2022/05/26 06:04:04;;;;;;;2.33;1.60;;;17.50;68.70;;;;;;5012812;28;20208;-82
2022/05/26 06:06:41;;;;;;;3.30;1.80;;;17.70;66.90;;;;;;5056108;28;20191;-83
2022/05/26 06:09:09;;;;;;;2.57;2.10;;;17.80;67.70;;;;;;5046861;28;20267;-82
2022/05/26 06:11:35;;;;;;;1.97;1.63;;;17.90;66.00;;;;;;5054824;28;20195;-83
2022/05/26 06:14:04;;;;;;;1.80;1.70;;;17.70;66.20;;;;;;5046362;28;20208;-83
2022/05/26 06:16:30;;;;;;;2.63;1.90;;;17.60;66.40;;;;;;5047893;28;20272;-85
2022/05/26 06:18:56;;;;;;;2.87;1.90;;;17.40;68.00;;;;;;5051929;28;20665;-83
2022/05/26 06:21:22;;;;;;;3.00;1.80;;;17.50;67.00;;;;;;5049213;28;20175;-83
2022/05/26 06:23:48;;;;;;;1.90;1.80;;;17.40;67.40;;;;;;5036787;28;20251;-83
2022/05/26 06:26:14;;;;;;;3.67;1.87;;;17.30;68.90;;;;;;5051409;28;20188;-83
2022/05/26 06:31:24;;;;;;;1.83;1.70;;;17.60;67.60;;;;;;5045310;28;20202;-83
2022/05/26 06:39:27;;;;;;;3.27;1.93;;;17.70;66.80;;;;;;5022503;28;20200;-84
2022/05/26 06:42:06;;;;;;;3.50;2.03;;;17.80;65.70;;;;;;5057499;28;20168;-83
2022/05/26 06:44:42;;;;;;;6.33;2.07;;;17.80;66.50;;;;;;5045856;28;20216;-83
2022/05/26 06:47:30;;;;;;;1.90;1.73;;;17.90;65.90;;;;;;5060081;28;20197;-83
2022/05/26 06:49:56;;;;;;;3.27;1.90;;;17.90;65.50;;;;;;5053739;28;20239;-83
2022/05/26 06:52:24;;;;;;;2.40;2.07;;;18.00;64.80;;;;;;5056982;28;20688;-83
2022/05/26 06:54:50;;;;;;;2.43;1.70;;;18.10;65.50;;;;;;5055313;28;20184;-84
2022/05/26 06:57:16;;;;;;;2.90;2.07;;;18.10;63.70;;;;;;5052651;28;20181;-83
2022/05/26 06:59:48;;;;;;;2.67;1.83;;;18.30;62.40;;;;;;5058114;28;20184;-83
2022/05/26 07:02:14;;;;;;;2.37;1.80;;;18.40;62.00;;;;;;5062504;28;20183;-82
2022/05/26 07:04:42;;;;;;;2.07;1.77;;;18.40;62.00;;;;;;5060745;28;20814;-83
2022/05/26 07:07:08;;;;;;;2.40;1.50;;;18.40;62.30;;;;;;5059637;28;20237;-83
2022/05/26 07:09:37;;;;;;;1.70;1.60;;;18.40;61.70;;;;;;5064759;28;20657;-84
2022/05/26 07:12:03;;;;;;;2.57;1.80;;;18.30;63.20;;;;;;5041274;28;20192;-84
2022/05/26 07:14:28;;;;;;;2.50;1.90;;;18.20;63.70;;;;;;5060862;28;20205;-85
2022/05/26 07:16:55;;;;;;;1.80;1.70;;;18.30;62.80;;;;;;5045480;28;20622;-83
2022/05/26 07:19:21;;;;;;;2.53;1.80;;;18.40;63.20;;;;;;5045616;28;20198;-83
2022/05/26 07:21:48;;;;;;;2.00;1.60;;;18.40;62.70;;;;;;5057765;28;20221;-85
2022/05/26 07:24:17;;;;;;;3.40;2.00;;;18.30;63.40;;;;;;5038855;28;20201;-84
2022/05/26 07:26:43;;;;;;;2.43;1.93;;;18.30;62.50;;;;;;5055793;28;20204;-83
2022/05/26 07:29:09;;;;;;;1.90;1.80;;;18.50;63.10;;;;;;5048488;28;20227;-83
2022/05/26 07:31:35;;;;;;;4.00;1.73;;;18.60;64.60;;;;;;5056694;28;20555;-84
2022/05/26 07:34:01;;;;;;;1.83;1.73;;;18.50;63.10;;;;;;5050363;28;20219;-83
2022/05/26 07:42:03;;;;;;;2.00;1.90;;;18.50;63.70;;;;;;5052839;28;20196;-82
2022/05/26 07:44:35;;;;;;;2.95;1.80;;;18.70;62.70;;;;;;5054140;28;20212;-83
2022/05/26 07:47:05;;;;;;;2.80;2.20;;;18.80;60.60;;;;;;5053737;28;20182;-84
2022/05/26 07:49:33;;;;;;;4.30;1.70;;;18.80;60.20;;;;;;5050185;28;20187;-83
2022/05/26 07:52:01;;;;;;;3.47;2.13;;;18.80;62.00;;;;;;5028092;28;20244;-82
2022/05/26 07:54:28;;;;;;;2.30;2.10;;;18.60;61.40;;;;;;5009181;28;20628;-83
2022/05/26 07:56:55;;;;;;;4.77;2.20;;;18.50;61.90;;;;;;5048134;28;20228;-82
2022/05/26 07:59:21;;;;;;;2.33;1.97;;;18.50;63.10;;;;;;5050616;28;20178;-83
2022/05/26 08:01:48;;;;;;;1.85;1.65;;;18.60;62.00;;;;;;5046229;28;20189;-83
2022/05/26 08:04:17;;;;;;;2.28;1.88;;;18.80;61.40;;;;;;5048812;28;20207;-84
2022/05/26 08:06:46;;;;;;;2.15;1.80;;;18.80;61.40;;;;;;5035580;28;20191;-83
2022/05/26 08:09:19;;;;;;;5.80;2.17;;;18.80;61.70;;;;;;5029446;28;20192;-83
2022/05/26 08:11:45;;;;;;;2.80;2.05;;;18.90;61.00;;;;;;5047316;28;20722;-83
2022/05/26 08:14:12;;;;;;;3.67;1.92;;;18.90;61.50;;;;;;5034300;28;20230;-83
2022/05/26 08:16:38;;;;;;;2.58;1.70;;;18.80;62.00;;;;;;5055271;28;20203;-84
2022/05/26 08:19:05;;;;;;;2.78;2.08;;;18.70;62.90;;;;;;5032196;28;20191;-84
2022/05/26 08:21:35;;;;;;;3.72;1.92;;;18.90;63.20;;;;;;5046624;28;20184;-84
2022/05/26 08:24:01;;;;;;;3.97;2.10;;;19.00;62.20;;;;;;5032898;28;20211;-83
2022/05/26 08:26:28;;;;;;;8.38;2.30;;;19.00;61.20;;;;;;5052338;28;20219;-85
2022/05/26 08:28:55;;;;;;;3.10;2.00;;;18.90;61.60;;;;;;5049361;28;20231;-83
2022/05/26 08:31:21;;;;;;;4.53;1.80;;;19.00;61.40;;;;;;5034552;28;20540;-84
2022/05/26 08:33:46;;;;;;;3.07;2.00;;;19.00;61.70;;;;;;5048843;28;20607;-83
2022/05/26 08:36:15;;;;;;;2.97;2.00;;;19.00;62.00;;;;;;5050475;28;20301;-84
2022/05/26 08:38:43;;;;;;;3.78;2.22;;;19.20;61.10;;;;;;5055956;28;20186;-84
2022/05/26 08:41:23;;;;;;;5.35;1.98;;;19.30;60.50;;;;;;5056398;28;20176;-84
2022/05/26 08:43:53;;;;;;;2.22;1.90;;;19.40;60.70;;;;;;5045617;28;20246;-84
2022/05/26 08:46:22;;;;;;;3.00;2.10;;;19.30;59.70;;;;;;5047762;28;20537;-84
2022/05/26 08:49:08;;;;;;;2.63;2.05;;;19.30;60.70;;;;;;5054596;28;20214;-83
2022/05/26 08:51:52;;;;;;;3.47;2.20;;;19.30;60.90;;;;;;5054044;28;20195;-84
2022/05/26 08:54:39;;;;;;;5.87;1.90;;;19.10;60.60;;;;;;5058052;28;20252;-83
2022/05/26 08:57:12;;;;;;;3.90;2.00;;;19.00;61.70;;;;;;5061089;28;20210;-83
2022/05/26 08:59:41;;;;;;;6.00;2.10;;;19.10;60.70;;;;;;5063704;28;20189;-84
2022/05/26 09:02:23;;;;;;;4.17;2.07;;;19.00;61.30;;;;;;5060790;28;20251;-81
2022/05/26 09:04:49;;;;;;;3.33;2.10;;;19.00;61.40;;;;;;5065009;28;20188;-82
2022/05/26 09:12:59;;;;;;;3.03;1.88;;;19.00;62.50;;;;;;5062169;28;20611;-82
2022/05/26 09:15:27;;;;;;;4.68;2.40;;;19.10;63.00;;;;;;5057650;28;20214;-81
2022/05/26 09:17:53;;;;;;;3.60;1.73;;;19.20;61.00;;;;;;5061566;28;20211;-81
2022/05/26 09:20:34;;;;;;;2.47;1.98;;;19.20;61.40;;;;;;5062134;28;20221;-81
2022/05/26 09:23:27;;;;;;;3.08;2.13;;;19.20;62.20;;;;;;5056119;28;20582;-81
2022/05/26 09:26:02;;;;;;;4.43;2.20;;;19.00;62.80;;;;;;5061412;28;20270;-82
2022/05/26 09:28:41;;;;;;;4.60;2.15;;;19.30;61.50;;;;;;5059030;28;20188;-82
2022/05/26 09:31:31;;;;;;;2.95;2.10;;;19.30;61.90;;;;;;5063598;28;20183;-82
2022/05/26 09:34:14;;;;;;;3.20;2.22;;;19.30;62.00;;;;;;5062910;28;20235;-82
2022/05/26 09:36:48;;;;;;;2.30;1.90;;;19.30;61.30;;;;;;5055702;28;20211;-82
2022/05/26 09:39:22;;;;;;;3.80;2.28;;;19.20;61.50;;;;;;5067483;28;20175;-82
2022/05/26 09:41:54;;;;;;;4.25;2.03;;;19.00;62.80;;;;;;5057895;28;20233;-82
2022/05/26 09:44:31;;;;;;;4.03;2.03;;;19.00;63.20;;;;;;5061852;28;20218;-81
2022/05/26 09:47:01;;;;;;;3.43;2.10;;;18.90;61.60;;;;;;5053228;28;20187;-82
2022/05/26 09:49:36;;;;;;;4.07;2.28;;;19.00;63.20;;;;;;5060618;28;20191;-82
2022/05/26 09:52:17;;;;;;;3.40;2.10;;;19.10;63.30;;;;;;5059363;28;20190;-82
2022/05/26 09:54:45;;;;;;;4.47;2.05;;;19.10;62.20;;;;;;5056665;28;20186;-82
2022/05/26 09:57:20;;;;;;;6.13;2.20;;;19.10;61.20;;;;;;5059158;28;20183;-82
2022/05/26 09:59:47;;;;;;;3.60;2.17;;;19.10;61.90;;;;;;5062485;28;20176;-82
2022/05/26 10:02:19;;;;;;;3.93;2.20;;;18.90;62.30;;;;;;5058824;28;20272;-82
2022/05/26 10:04:57;;;;;;;2.00;1.83;;;18.70;63.90;;;;;;5055846;28;20202;-82
2022/05/26 10:08:03;;;;;;;3.33;2.22;;;18.80;63.80;;;;;;5041776;28;20662;-80
2022/05/26 10:10:49;;;;;;;3.72;2.08;;;19.00;62.90;;;;;;5057474;28;20267;-81
2022/05/26 10:13:20;;;;;;;2.22;2.00;;;19.00;63.30;;;;;;5040363;28;20215;-80
2022/05/26 10:15:52;;;;;;;4.47;2.40;;;18.90;63.20;;;;;;5038460;28;20689;-81
2022/05/26 10:18:39;;;;;;;3.23;2.07;;;18.80;63.50;;;;;;5064463;28;20203;-81
2022/05/26 10:21:23;;;;;;;2.57;1.90;;;18.60;63.90;;;;;;5043469;28;20214;-81
2022/05/26 10:23:54;;;;;;;1.80;1.70;;;18.60;64.30;;;;;;5050176;28;20212;-81
2022/05/26 10:26:49;;;;;;;5.37;2.13;;;18.70;64.80;;;;;;5066824;28;20258;-81
2022/05/26 10:29:43;;;;;;;5.30;2.20;;;18.80;64.20;;;;;;5048244;28;20595;-82
2022/05/26 10:32:30;;;;;;;3.58;1.98;;;19.00;64.70;;;;;;5050979;28;20586;-82
2022/05/26 10:35:19;;;;;;;3.33;2.20;;;19.00;64.20;;;;;;5051194;28;20249;-81
2022/05/26 10:38:01;;;;;;;3.85;1.98;;;19.10;63.70;;;;;;5059126;28;20217;-82
2022/05/26 10:40:50;;;;;;;6.03;2.10;;;19.50;64.20;;;;;;5052831;28;20181;-82
2022/05/26 10:43:38;;;;;;;3.13;2.08;;;19.60;62.60;;;;;;5055627;28;20249;-82
2022/05/26 10:46:07;;;;;;;2.40;2.10;;;19.60;62.30;;;;;;5062199;28;20184;-81
2022/05/26 10:49:12;;;;;;;3.55;2.10;;;19.80;61.50;;;;;;5054075;28;20735;-82
2022/05/26 10:51:48;;;;;;;3.67;2.17;;;19.80;61.30;;;;;;5033166;28;20282;-82
2022/05/26 10:54:34;;;;;;;6.95;2.25;;;19.90;61.70;;;;;;5063437;28;20225;-81
2022/05/26 10:57:15;;;;;;;2.58;2.17;;;20.00;60.90;;;;;;5043080;28;20579;-81
2022/05/26 10:59:49;;;;;;;2.10;1.90;;;20.60;59.60;;;;;;5039950;28;20279;-81
2022/05/26 11:02:17;;;;;;;2.13;1.90;;;20.80;58.90;;;;;;5049562;28;20191;-82
2022/05/26 11:04:56;;;;;;;3.20;2.22;;;21.10;57.10;;;;;;5035738;28;20232;-82
2022/05/26 11:07:48;;;;;;;2.30;1.77;;;21.20;54.80;;;;;;5057757;28;20182;-82
2022/05/26 11:10:21;;;;;;;5.47;1.95;;;21.20;55.60;;;;;;5061502;28;20230;-81
2022/05/26 11:13:27;;;;;;;2.47;2.00;;;21.20;55.00;;;;;;5062124;28;20204;-82
2022/05/26 11:19:01;;;;;;;3.33;2.15;;;21.30;55.80;;;;;;5062377;28;20237;-82
2022/05/26 11:21:26;;;;;;;2.03;1.90;;;21.20;55.60;;;;;;5062923;28;20191;-81
2022/05/26 11:23:52;;;;;;;2.20;1.90;;;21.10;56.30;;;;;;5041485;28;20215;-83
2022/05/26 11:26:40;;;;;;;2.88;1.90;;;21.30;56.30;;;;;;5063201;28;20195;-83
2022/05/26 11:29:35;;;;;;;4.93;2.30;;;21.60;55.30;;;;;;5054801;28;20172;-82
2022/05/26 11:38:12;;;;;;;3.42;1.90;;;20.80;57.10;;;;;;5055009;28;20186;-82
2022/05/26 11:41:00;;;;;;;5.13;2.00;;;20.70;58.40;;;;;;5055333;28;20180;-80
2022/05/26 11:43:53;;;;;;;4.85;2.00;;;20.70;57.30;;;;;;5051308;28;20211;-81
2022/05/26 11:46:44;;;;;;;3.67;1.80;;;20.70;56.30;;;;;;5054856;28;20211;-81
2022/05/26 11:49:31;;;;;;;1.98;1.88;;;20.60;56.40;;;;;;5058452;28;20235;-82
2022/05/26 11:51:56;;;;;;;3.17;1.90;;;20.70;55.80;;;;;;5055826;28;20188;-81
2022/05/26 11:54:54;;;;;;;2.63;1.95;;;20.70;57.70;;;;;;5055368;28;20221;-82
2022/05/26 11:57:39;;;;;;;3.42;2.10;;;21.00;56.30;;;;;;5056929;28;20242;-82
2022/05/26 12:00:23;;;;;;;1.85;1.73;;;21.60;55.10;;;;;;5065674;28;20198;-81
2022/05/26 12:02:51;;;;;;;2.67;1.70;;;21.80;51.10;;;;;;5063503;28;20257;-82
2022/05/26 12:05:29;;;;;;;4.15;2.03;;;21.60;52.60;;;;;;5057864;28;20220;-82
2022/05/26 12:08:26;;;;;;;4.53;2.00;;;21.70;52.20;;;;;;5057357;28;20755;-81
2022/05/26 12:11:02;;;;;;;2.88;1.80;;;21.70;52.90;;;;;;5062699;28;20191;-82
2022/05/26 12:13:32;;;;;;;3.78;1.90;;;21.60;53.00;;;;;;5060131;28;20212;-81
2022/05/26 12:16:19;;;;;;;2.85;2.22;;;21.90;51.40;;;;;;5054701;28;20231;-82
2022/05/26 12:18:53;;;;;;;1.95;1.70;;;22.20;50.80;;;;;;5058786;28;20185;-82
2022/05/26 12:21:31;;;;;;;2.38;2.00;;;22.20;51.60;;;;;;5041998;28;20193;-82
2022/05/26 12:24:18;;;;;;;3.15;1.77;;;22.50;49.30;;;;;;5062712;28;20200;-83
2022/05/26 12:26:54;;;;;;;1.77;1.67;;;22.60;46.80;;;;;;5053250;28;20182;-82
2022/05/26 12:29:42;;;;;;;5.10;2.00;;;22.20;49.20;;;;;;5051425;28;20255;-82
2022/05/26 12:32:25;;;;;;;3.13;2.05;;;21.60;50.40;;;;;;5063719;28;20231;-82
2022/05/26 12:35:16;;;;;;;3.42;1.90;;;21.80;50.60;;;;;;5044372;28;20239;-82
2022/05/26 12:38:02;;;;;;;1.95;1.77;;;21.90;51.80;;;;;;5062818;28;20359;-81
2022/05/26 12:40:46;;;;;;;3.05;1.90;;;21.80;51.40;;;;;;5067545;28;20201;-83
2022/05/26 12:43:48;;;;;;;4.05;1.80;;;22.00;51.10;;;;;;5061716;28;20221;-83
2022/05/26 12:46:29;;;;;;;2.00;1.80;;;22.10;50.50;;;;;;5062854;28;20233;-82
2022/05/26 12:49:27;;;;;;;2.17;2.08;;;22.40;51.60;;;;;;5061679;28;20187;-82
2022/05/26 12:52:17;;;;;;;1.90;1.80;;;22.80;48.80;;;;;;5023187;28;20198;-82
2022/05/26 12:54:59;;;;;;;3.35;2.08;;;22.80;48.20;;;;;;5063266;28;20623;-81
2022/05/26 12:57:26;;;;;;;4.93;2.03;;;22.70;48.50;;;;;;5064161;28;20187;-83
2022/05/26 13:00:22;;;;;;;2.53;2.05;;;22.60;49.30;;;;;;5045138;28;20208;-83
2022/05/26 13:02:55;;;;;;;2.90;1.73;;;22.50;49.10;;;;;;5048985;28;20495;-82
2022/05/26 13:05:21;;;;;;;2.97;2.30;;;22.70;48.10;;;;;;5058900;28;20187;-83
2022/05/26 13:07:53;;;;;;;7.65;2.22;;;22.60;48.30;;;;;;5064118;28;20191;-81
2022/05/26 13:10:40;;;;;;;3.25;1.80;;;23.10;47.50;;;;;;5058522;28;20188;-82
2022/05/26 13:13:37;;;;;;;5.72;2.30;;;23.50;46.40;;;;;;5063043;28;20240;-82
2022/05/26 13:16:23;;;;;;;4.03;2.28;;;24.30;44.00;;;;;;5059641;28;20212;-83
2022/05/26 13:18:50;;;;;;;3.13;2.20;;;24.70;44.30;;;;;;5056406;28;20202;-83
2022/05/26 13:21:21;;;;;;;4.93;2.08;;;24.60;42.90;;;;;;5059273;28;20887;-83
2022/05/26 13:23:50;;;;;;;2.40;1.90;;;24.40;42.80;;;;;;5052276;28;20224;-82
2022/05/26 13:26:18;;;;;;;1.98;1.85;;;24.20;42.20;;;;;;5062823;28;20212;-83
2022/05/26 13:28:48;;;;;;;2.00;1.83;;;24.50;42.70;;;;;;5026775;28;20200;-84
2022/05/26 13:34:03;;;;;;;5.28;2.50;;;24.60;41.00;;;;;;5063810;28;20223;-83
2022/05/26 13:36:44;;;;;;;3.15;2.10;;;24.00;40.40;;;;;;5057557;28;20218;-80
2022/05/26 13:39:20;;;;;;;1.80;1.70;;;23.70;39.80;;;;;;5057285;28;20176;-81
2022/05/26 13:41:52;;;;;;;2.25;1.63;;;23.10;40.40;;;;;;5063734;28;20209;-82
2022/05/26 13:44:34;;;;;;;1.77;1.67;;;23.40;41.30;;;;;;5059632;28;20230;-82
2022/05/26 13:47:06;;;;;;;2.63;1.83;;;23.90;42.70;;;;;;5037811;28;20192;-81
2022/05/26 13:49:32;;;;;;;1.83;1.73;;;24.50;41.10;;;;;;5054447;28;20185;-81
2022/05/26 13:52:09;;;;;;;2.05;1.90;;;24.20;41.50;;;;;;5062409;28;20327;-81
2022/05/26 13:54:40;;;;;;;2.72;1.98;;;24.50;41.80;;;;;;5057482;28;20215;-81
2022/05/26 13:57:26;;;;;;;4.45;2.20;;;25.20;40.40;;;;;;5049518;28;20208;-82
2022/05/26 13:59:58;;;;;;;2.80;2.30;;;25.70;39.40;;;;;;5057555;28;20248;-82